Amsterdam, New York
Current Conditions -  °F | °C
As of 2:35 AM on Wednesday 26 Nov 2014 (Local Time) from KNY0 Reporting Station
Scattered Clouds Scattered Clouds  
Wind Chill: 28°   Ceiling: Unl
Heat Index: 33°   Visibility: 10mi
Dew Point: 25°   Wind: 6mph
Humidity: 70%   Direction: 270°W
Pressure: 30.19"   Gusts: NA
Location:  42.94°N, 74.19°W
Report Text: KNY0 260735Z AUTO 27005KT 10SM SCT039 01/M04 A3019 RMK AO2 T00081041
Loading
Personal Weather Stations






























Interactive Weather Map New forecast layout! Learn more

10-Day Weather Forecast

Advertisements
Track Severe Weather on mobile